Time;durP1;ratioP1;P1;durP2;ratioP2;P2;SDS_P1;SDS_P2;PMS_P1;PMS_P2;Temp;Humidity;BMP_temperature;BMP_pressure;BME280_temperature;BME280_humidity;BME280_pressure;Samples;Min_cycle;Max_cycle;Signal;HPM_P1;HPM_P2
2021/03/20 00:00:45;;;;;;;13.07;9.93;;;5.80;99.90;;;;;;5128545;28;20166;-70
2021/03/20 00:03:11;;;;;;;16.20;9.83;;;5.80;99.90;;;;;;5128323;28;20163;-70
2021/03/20 00:05:37;;;;;;;21.10;10.37;;;5.70;99.90;;;;;;5125305;28;20163;-70
2021/03/20 00:08:04;;;;;;;17.03;9.90;;;5.90;99.90;;;;;;5128065;28;20159;-70
2021/03/20 00:10:30;;;;;;;15.37;10.43;;;5.90;99.90;;;;;;5128104;28;20183;-70
2021/03/20 00:12:56;;;;;;;19.03;10.77;;;5.80;99.90;;;;;;5126538;28;20223;-70
2021/03/20 00:15:25;;;;;;;25.83;12.63;;;5.70;99.90;;;;;;5125745;28;20174;-70
2021/03/20 00:17:51;;;;;;;19.23;11.10;;;5.90;99.90;;;;;;5127988;28;20183;-70
2021/03/20 00:20:26;;;;;;;18.40;11.27;;;5.70;99.90;;;;;;5127896;28;20171;-70
2021/03/20 00:22:52;;;;;;;19.20;11.43;;;5.80;99.90;;;;;;5127993;28;20202;-70
2021/03/20 00:25:18;;;;;;;30.77;11.77;;;5.70;99.90;;;;;;5125202;28;20250;-70
2021/03/20 00:27:44;;;;;;;25.30;11.83;;;5.80;99.90;;;;;;5128156;28;20159;-70
2021/03/20 00:30:11;;;;;;;18.70;11.37;;;5.60;99.90;;;;;;5127927;28;20729;-71
2021/03/20 00:32:36;;;;;;;22.53;11.97;;;5.70;99.90;;;;;;5127702;28;20167;-70
2021/03/20 00:35:04;;;;;;;22.03;12.10;;;5.70;99.90;;;;;;5126146;28;20265;-70
2021/03/20 00:37:30;;;;;;;19.90;11.83;;;5.70;99.90;;;;;;5127394;28;20163;-70
2021/03/20 00:39:56;;;;;;;24.57;11.13;;;5.70;99.90;;;;;;5127755;28;20163;-70
2021/03/20 00:42:22;;;;;;;16.07;11.07;;;5.70;99.90;;;;;;5127679;28;20201;-70
2021/03/20 00:44:47;;;;;;;21.77;11.03;;;5.70;99.90;;;;;;5127841;28;20205;-70
2021/03/20 00:47:13;;;;;;;20.87;11.60;;;5.70;99.90;;;;;;5125206;28;20174;-70
2021/03/20 00:49:39;;;;;;;20.53;11.97;;;5.80;99.90;;;;;;5127376;28;20173;-70
2021/03/20 00:52:04;;;;;;;21.57;10.23;;;5.80;99.90;;;;;;5127426;28;20579;-70
2021/03/20 00:54:30;;;;;;;20.30;10.43;;;5.90;99.90;;;;;;5127678;28;20201;-70
2021/03/20 00:56:56;;;;;;;15.57;9.70;;;6.00;99.90;;;;;;5124817;28;20216;-69
2021/03/20 00:59:21;;;;;;;17.07;9.77;;;6.20;99.90;;;;;;5127542;28;20181;-70
2021/03/20 01:01:47;;;;;;;19.97;9.83;;;6.20;99.90;;;;;;5127385;28;20177;-70
2021/03/20 01:04:13;;;;;;;19.27;9.80;;;6.10;99.90;;;;;;5126642;28;20201;-70
2021/03/20 01:06:38;;;;;;;14.30;10.20;;;6.20;99.90;;;;;;5124640;28;20526;-70
2021/03/20 01:09:06;;;;;;;21.43;10.87;;;6.30;99.90;;;;;;5127068;28;20174;-70
2021/03/20 01:11:32;;;;;;;17.57;11.03;;;6.20;99.90;;;;;;5127296;28;20171;-70
2021/03/20 01:13:59;;;;;;;17.97;10.80;;;6.20;99.90;;;;;;5127147;28;20175;-70
2021/03/20 01:16:25;;;;;;;15.90;10.67;;;6.40;99.90;;;;;;5124778;28;20170;-70
2021/03/20 01:18:52;;;;;;;15.20;11.53;;;6.50;99.90;;;;;;5126925;28;20223;-69
2021/03/20 01:21:19;;;;;;;17.90;11.33;;;6.40;99.90;;;;;;5126548;28;20204;-70
2021/03/20 01:23:44;;;;;;;23.50;11.23;;;6.30;99.90;;;;;;5126939;28;20277;-70
2021/03/20 01:26:10;;;;;;;18.13;11.97;;;6.60;99.90;;;;;;5124278;28;20162;-70
2021/03/20 01:28:38;;;;;;;14.97;11.20;;;6.70;99.90;;;;;;5126898;28;20159;-70
2021/03/20 01:31:05;;;;;;;14.13;10.10;;;6.70;99.90;;;;;;5126464;28;20533;-70
2021/03/20 01:33:31;;;;;;;19.07;10.27;;;6.60;99.90;;;;;;5126780;28;20186;-70
2021/03/20 01:35:57;;;;;;;29.07;10.83;;;6.90;99.90;;;;;;5123799;28;20171;-70
2021/03/20 01:38:24;;;;;;;27.67;11.17;;;7.10;99.90;;;;;;5126974;28;20159;-70
2021/03/20 01:40:53;;;;;;;18.30;10.93;;;7.10;99.90;;;;;;5126469;28;20169;-69
2021/03/20 01:43:22;;;;;;;17.80;11.37;;;7.00;99.90;;;;;;5126748;28;20162;-70
2021/03/20 01:45:49;;;;;;;19.40;10.97;;;6.70;99.90;;;;;;5123936;28;20163;-70
2021/03/20 01:48:24;;;;;;;19.37;10.13;;;6.20;99.90;;;;;;5126845;28;20187;-70
2021/03/20 01:50:50;;;;;;;20.33;9.70;;;5.90;99.90;;;;;;5125435;28;20177;-70
2021/03/20 01:53:36;;;;;;;17.17;10.43;;;5.60;99.90;;;;;;5126551;28;20167;-71
2021/03/20 01:56:07;;;;;;;18.27;10.30;;;5.30;99.90;;;;;;5123216;28;20248;-70
2021/03/20 01:58:34;;;;;;;19.10;10.27;;;5.30;99.90;;;;;;5125611;28;20163;-70
2021/03/20 02:01:04;;;;;;;21.20;10.97;;;5.20;99.90;;;;;;5125341;28;20186;-70
2021/03/20 02:03:30;;;;;;;20.43;10.97;;;5.20;99.90;;;;;;5125475;28;20202;-70
2021/03/20 02:05:56;;;;;;;16.57;10.90;;;5.20;99.90;;;;;;5122439;28;20194;-70
2021/03/20 02:08:22;;;;;;;20.73;11.13;;;5.20;99.90;;;;;;5125739;28;20174;-70
2021/03/20 02:10:49;;;;;;;17.53;11.40;;;5.20;99.90;;;;;;5125511;28;20170;-70
2021/03/20 02:13:43;;;;;;;18.93;10.57;;;5.20;99.90;;;;;;5125354;28;20171;-70
2021/03/20 02:16:15;;;;;;;16.53;10.93;;;5.20;99.90;;;;;;5121427;28;20159;-70
2021/03/20 02:19:02;;;;;;;17.13;10.67;;;5.20;99.90;;;;;;5125357;28;20167;-70
2021/03/20 02:21:40;;;;;;;17.23;10.53;;;5.20;99.90;;;;;;5125216;28;20624;-70
2021/03/20 02:24:17;;;;;;;15.17;10.53;;;5.30;99.90;;;;;;5125075;28;20193;-70
2021/03/20 02:27:12;;;;;;;13.70;9.90;;;5.40;99.90;;;;;;5121414;28;20536;-70
2021/03/20 02:30:04;;;;;;;18.47;11.40;;;5.40;99.90;;;;;;5125452;28;20173;-70
2021/03/20 02:32:48;;;;;;;12.77;10.70;;;5.40;99.90;;;;;;5125023;28;20236;-70
2021/03/20 02:35:16;;;;;;;14.93;10.90;;;5.40;99.90;;;;;;5122298;28;20174;-70
2021/03/20 02:38:20;;;;;;;19.10;10.43;;;5.30;99.90;;;;;;5125231;28;20620;-69
2021/03/20 02:40:59;;;;;;;16.90;10.27;;;5.30;99.90;;;;;;5125317;28;20154;-69
2021/03/20 02:43:37;;;;;;;19.27;10.50;;;5.30;99.90;;;;;;5125017;28;20190;-69
2021/03/20 02:46:27;;;;;;;19.53;9.83;;;5.20;99.90;;;;;;5122395;28;20234;-69
2021/03/20 02:49:17;;;;;;;16.77;11.40;;;5.20;99.90;;;;;;5124799;28;20167;-69
2021/03/20 02:51:51;;;;;;;18.33;10.87;;;5.10;99.90;;;;;;5124810;28;20174;-69
2021/03/20 02:54:22;;;;;;;18.13;10.80;;;5.00;99.90;;;;;;5125013;28;20629;-69
2021/03/20 02:56:56;;;;;;;16.67;10.60;;;5.00;99.90;;;;;;5101779;28;596865;-69
2021/03/20 02:59:28;;;;;;;14.17;10.53;;;5.00;99.90;;;;;;5125734;28;20171;-69
2021/03/20 03:01:56;;;;;;;18.93;11.93;;;5.00;99.90;;;;;;5125559;28;20181;-69
2021/03/20 03:04:24;;;;;;;18.93;10.80;;;5.00;99.90;;;;;;5125502;28;20273;-69
2021/03/20 03:07:03;;;;;;;18.67;11.57;;;4.90;99.90;;;;;;5123001;28;20534;-69
2021/03/20 03:09:38;;;;;;;14.60;10.37;;;4.90;99.90;;;;;;5125725;28;20155;-69
2021/03/20 03:12:06;;;;;;;18.37;10.47;;;4.90;99.90;;;;;;5125530;28;20561;-69
2021/03/20 03:14:44;;;;;;;18.40;12.60;;;4.90;99.90;;;;;;5125844;28;20167;-69
2021/03/20 03:17:10;;;;;;;16.93;12.27;;;4.80;99.90;;;;;;5122820;28;20230;-69
2021/03/20 03:19:45;;;;;;;17.73;12.33;;;4.80;99.90;;;;;;5125257;28;20170;-69
2021/03/20 03:22:16;;;;;;;18.53;12.73;;;4.80;99.90;;;;;;5125322;28;20197;-69
2021/03/20 03:24:43;;;;;;;21.40;12.43;;;5.00;99.90;;;;;;5125523;28;20202;-69
2021/03/20 03:27:14;;;;;;;18.83;11.20;;;4.90;99.90;;;;;;5123243;28;20163;-70
2021/03/20 03:29:41;;;;;;;18.53;12.47;;;4.80;99.90;;;;;;5129181;28;20172;-70
2021/03/20 03:32:18;;;;;;;18.27;13.40;;;4.70;99.90;;;;;;5128705;28;20166;-70
2021/03/20 03:35:06;;;;;;;22.47;12.77;;;4.60;99.90;;;;;;5128944;28;20182;-70
2021/03/20 03:37:41;;;;;;;23.13;14.63;;;4.60;99.90;;;;;;5128544;28;20253;-70
2021/03/20 03:40:19;;;;;;;29.67;13.30;;;4.50;99.90;;;;;;5129023;28;20163;-70
2021/03/20 03:42:50;;;;;;;27.67;15.13;;;4.50;99.90;;;;;;5128890;28;20177;-70
2021/03/20 03:45:17;;;;;;;25.90;14.07;;;4.50;99.90;;;;;;5126481;28;20250;-70
2021/03/20 03:47:44;;;;;;;28.40;14.00;;;4.40;99.90;;;;;;5128878;28;20166;-70
2021/03/20 03:50:20;;;;;;;21.67;14.23;;;4.40;99.90;;;;;;5128326;28;20196;-70
2021/03/20 03:52:46;;;;;;;21.87;15.23;;;4.40;99.90;;;;;;5128914;28;20230;-70
2021/03/20 03:55:13;;;;;;;24.43;14.90;;;4.40;99.90;;;;;;5126022;28;20192;-69
2021/03/20 03:58:04;;;;;;;16.50;13.37;;;4.40;99.90;;;;;;5128685;28;20163;-70
2021/03/20 04:00:56;;;;;;;25.57;14.77;;;4.40;99.90;;;;;;5128545;28;20170;-70
2021/03/20 04:04:01;;;;;;;22.23;13.87;;;4.40;99.90;;;;;;5128337;28;20180;-70
2021/03/20 04:07:02;;;;;;;22.63;14.93;;;4.40;99.90;;;;;;5125710;28;20193;-70
2021/03/20 04:09:32;;;;;;;26.10;17.47;;;4.40;99.90;;;;;;5065373;28;20184;-70
2021/03/20 04:12:29;;;;;;;22.37;17.00;;;4.40;99.90;;;;;;5065093;28;20248;-69
2021/03/20 04:15:06;;;;;;;25.93;17.00;;;4.40;99.90;;;;;;5064509;28;20180;-70
2021/03/20 04:18:16;;;;;;;25.83;17.83;;;4.30;99.90;;;;;;5064553;28;20175;-70
2021/03/20 04:20:49;;;;;;;29.87;19.20;;;4.20;99.90;;;;;;5024936;28;20257;-70
2021/03/20 04:23:21;;;;;;;27.80;17.67;;;4.20;99.90;;;;;;5025221;28;20318;-70
2021/03/20 04:25:50;;;;;;;26.00;17.90;;;4.20;99.90;;;;;;5022638;28;20180;-70
2021/03/20 04:28:48;;;;;;;23.27;17.60;;;4.20;99.90;;;;;;5025227;28;20177;-70
2021/03/20 04:31:22;;;;;;;29.73;18.73;;;4.20;99.90;;;;;;5025203;28;20189;-69
2021/03/20 04:34:01;;;;;;;31.17;19.60;;;4.20;99.90;;;;;;5025100;28;20186;-70
2021/03/20 04:36:34;;;;;;;32.57;20.03;;;4.20;99.90;;;;;;5022284;28;20170;-70
2021/03/20 04:39:01;;;;;;;28.53;19.20;;;4.30;99.90;;;;;;5023954;28;20186;-70
2021/03/20 04:41:28;;;;;;;26.50;18.90;;;4.20;99.90;;;;;;5025033;28;20196;-70
2021/03/20 04:43:54;;;;;;;22.53;18.30;;;4.30;99.90;;;;;;5024621;28;20190;-69
2021/03/20 04:46:23;;;;;;;28.17;19.07;;;4.20;99.90;;;;;;5063460;28;20168;-70
2021/03/20 04:48:58;;;;;;;28.43;19.30;;;4.10;99.90;;;;;;5084565;28;20168;-70
2021/03/20 04:51:24;;;;;;;29.83;19.50;;;4.00;99.90;;;;;;5106982;28;20182;-70
2021/03/20 04:54:12;;;;;;;27.37;19.37;;;4.00;99.90;;;;;;5127529;28;20507;-70
2021/03/20 04:57:03;;;;;;;26.37;19.33;;;4.00;99.90;;;;;;5124854;28;20214;-70
2021/03/20 04:59:55;;;;;;;30.87;19.70;;;4.00;99.90;;;;;;5116506;28;20210;-70
2021/03/20 05:02:50;;;;;;;31.47;23.37;;;4.00;99.90;;;;;;5127443;28;20233;-69
2021/03/20 05:05:34;;;;;;;29.73;21.33;;;4.10;99.90;;;;;;5124485;28;20222;-70
2021/03/20 05:08:05;;;;;;;34.37;21.83;;;4.00;99.90;;;;;;5127338;28;20173;-69
2021/03/20 05:10:52;;;;;;;33.13;22.57;;;4.00;99.90;;;;;;5127252;28;20184;-70
2021/03/20 05:13:58;;;;;;;27.53;21.23;;;3.90;99.90;;;;;;5127342;28;20190;-70
2021/03/20 05:16:41;;;;;;;31.30;21.87;;;3.90;99.90;;;;;;5124802;28;20172;-70
2021/03/20 05:19:07;;;;;;;32.40;21.67;;;3.80;99.90;;;;;;5127001;28;20640;-70
2021/03/20 05:21:40;;;;;;;30.97;21.63;;;3.80;99.90;;;;;;5126943;28;20170;-70
2021/03/20 05:24:10;;;;;;;29.03;21.93;;;3.70;99.90;;;;;;5126560;28;20636;-70
2021/03/20 05:26:35;;;;;;;27.27;20.67;;;3.90;99.90;;;;;;5124341;28;20161;-70
2021/03/20 05:29:01;;;;;;;31.17;21.67;;;3.80;99.90;;;;;;5126692;28;20179;-70
2021/03/20 05:31:28;;;;;;;31.13;21.13;;;3.80;99.90;;;;;;5126971;28;20213;-69
2021/03/20 05:33:54;;;;;;;28.83;22.03;;;3.80;99.90;;;;;;5126730;28;20168;-70
2021/03/20 05:36:20;;;;;;;33.20;21.87;;;3.80;99.90;;;;;;5124179;28;20194;-70
2021/03/20 05:38:47;;;;;;;33.43;21.97;;;3.70;99.90;;;;;;5127151;27;20173;-70
2021/03/20 05:41:38;;;;;;;30.93;22.47;;;3.80;99.90;;;;;;5126572;28;20163;-69
2021/03/20 05:44:25;;;;;;;32.27;21.17;;;3.90;99.90;;;;;;5126462;28;20182;-69
2021/03/20 05:47:00;;;;;;;41.33;23.60;;;3.90;99.90;;;;;;5124028;28;20159;-69
2021/03/20 05:49:44;;;;;;;35.60;23.03;;;3.90;99.90;;;;;;5126358;28;20192;-69
2021/03/20 05:52:24;;;;;;;39.30;23.90;;;3.90;99.90;;;;;;5126202;28;20181;-70
2021/03/20 05:54:53;;;;;;;36.90;24.53;;;3.70;99.90;;;;;;5126340;28;20163;-70
2021/03/20 05:57:41;;;;;;;37.63;24.80;;;3.70;99.90;;;;;;5124604;28;20210;-69
2021/03/20 06:00:36;;;;;;;36.80;23.27;;;3.60;99.90;;;;;;5126559;28;20226;-69
2021/03/20 06:03:38;;;;;;;35.33;23.57;;;3.50;99.90;;;;;;5126231;28;20179;-70
2021/03/20 06:06:30;;;;;;;33.60;22.43;;;3.60;99.90;;;;;;5123435;28;20693;-69
2021/03/20 06:09:04;;;;;;;29.63;22.17;;;3.60;99.90;;;;;;5121032;28;20228;-69
2021/03/20 06:11:48;;;;;;;35.13;22.03;;;3.50;99.90;;;;;;5126107;28;20161;-69
2021/03/20 06:14:43;;;;;;;33.80;23.00;;;3.50;99.90;;;;;;5126473;28;20194;-70
2021/03/20 06:17:46;;;;;;;32.67;21.50;;;3.50;99.90;;;;;;5123661;28;20170;-70
2021/03/20 06:20:31;;;;;;;30.53;21.30;;;3.50;99.90;;;;;;5125905;28;20233;-70
2021/03/20 06:23:34;;;;;;;36.15;26.90;;;3.50;99.90;;;;;;5124969;28;20399;-70
2021/03/20 06:26:13;;;;;;;31.63;22.77;;;4.00;99.90;;;;;;5123409;28;20253;-70
2021/03/20 06:28:53;;;;;;;40.50;25.07;;;3.90;99.90;;;;;;5124622;28;20215;-70
2021/03/20 06:31:25;;;;;;;40.00;26.17;;;3.80;99.90;;;;;;5125432;28;20508;-70
2021/03/20 06:34:00;;;;;;;41.20;24.63;;;3.90;99.90;;;;;;5125588;28;20167;-70
2021/03/20 06:36:35;;;;;;;40.17;24.30;;;3.90;99.90;;;;;;5122019;28;20194;-70
2021/03/20 06:39:12;;;;;;;36.77;24.13;;;3.90;99.90;;;;;;5126150;28;20175;-70
2021/03/20 06:41:48;;;;;;;32.63;23.00;;;3.90;99.90;;;;;;5125757;28;20162;-69
2021/03/20 06:44:29;;;;;;;28.80;22.90;;;3.90;99.90;;;;;;5126198;28;20194;-70
2021/03/20 06:46:55;;;;;;;35.90;23.33;;;4.00;99.90;;;;;;5123294;28;20627;-69
2021/03/20 06:49:39;;;;;;;33.13;24.30;;;4.10;99.90;;;;;;5125731;28;20159;-68
2021/03/20 06:52:08;;;;;;;33.97;24.27;;;4.30;99.90;;;;;;5125876;28;20155;-69
2021/03/20 06:54:34;;;;;;;43.03;25.60;;;4.30;99.90;;;;;;5125893;28;20784;-69
2021/03/20 06:57:00;;;;;;;36.00;27.35;;;4.30;99.90;;;;;;5122148;28;20431;-70
2021/03/20 06:59:26;;;;;;;34.70;24.47;;;4.50;99.90;;;;;;5125717;28;20166;-70
2021/03/20 07:02:11;;;;;;;32.73;23.87;;;4.40;99.90;;;;;;5125463;28;20151;-69
2021/03/20 07:04:59;;;;;;;36.05;25.08;;;4.40;99.90;;;;;;5129020;28;20433;-69
2021/03/20 07:07:35;;;;;;;33.20;23.50;;;4.50;99.90;;;;;;5099075;28;20175;-70
2021/03/20 07:10:03;;;;;;;29.20;23.73;;;4.60;99.90;;;;;;5129607;28;20225;-70
2021/03/20 07:12:30;;;;;;;32.13;22.47;;;4.60;99.90;;;;;;5129184;28;20174;-70
2021/03/20 07:14:58;;;;;;;34.23;23.10;;;4.70;99.90;;;;;;5128623;28;20221;-69
2021/03/20 07:17:23;;;;;;;31.70;22.50;;;4.70;99.90;;;;;;5128185;28;20169;-70
2021/03/20 07:20:08;;;;;;;34.60;22.07;;;4.80;99.90;;;;;;5128696;28;20541;-70
2021/03/20 07:22:36;;;;;;;36.30;23.33;;;4.80;99.90;;;;;;5129303;28;20162;-69
2021/03/20 07:25:22;;;;;;;31.33;22.40;;;4.90;99.90;;;;;;5127500;28;20201;-70
2021/03/20 07:27:48;;;;;;;36.17;23.23;;;4.90;99.90;;;;;;5129180;28;20166;-69
2021/03/20 07:30:52;;;;;;;30.53;21.57;;;5.00;99.90;;;;;;5129087;28;20170;-70
2021/03/20 07:33:33;;;;;;;32.63;21.10;;;5.10;99.90;;;;;;5128318;28;20167;-68
2021/03/20 07:36:29;;;;;;;28.93;21.57;;;5.20;99.90;;;;;;5125861;28;20177;-68
2021/03/20 07:39:10;;;;;;;29.17;19.77;;;5.30;99.90;;;;;;5128815;28;20198;-68
2021/03/20 07:41:59;;;;;;;26.80;16.67;;;5.40;99.90;;;;;;5128705;28;20169;-68
2021/03/20 07:44:27;;;;;;;23.80;16.93;;;5.50;99.90;;;;;;5128552;28;20189;-69
2021/03/20 07:46:54;;;;;;;27.83;16.43;;;5.30;99.90;;;;;;5126127;28;20165;-68
2021/03/20 07:49:28;;;;;;;25.30;17.53;;;5.30;99.90;;;;;;5128727;27;20187;-69
2021/03/20 07:52:01;;;;;;;26.20;16.60;;;5.40;99.90;;;;;;5128054;28;20192;-69
2021/03/20 07:54:35;;;;;;;27.43;16.57;;;5.40;99.90;;;;;;5127150;28;20584;-68
2021/03/20 07:57:15;;;;;;;23.13;16.87;;;5.50;99.90;;;;;;5125696;28;20202;-69
2021/03/20 07:59:48;;;;;;;29.30;17.37;;;5.60;99.90;;;;;;5128758;28;20170;-69
2021/03/20 08:02:26;;;;;;;25.10;16.63;;;5.70;99.90;;;;;;5128348;28;20236;-68
2021/03/20 08:05:01;;;;;;;26.43;16.33;;;5.90;99.90;;;;;;5109365;28;20228;-69
2021/03/20 08:07:47;;;;;;;21.27;16.33;;;6.00;99.90;;;;;;5107045;28;20174;-68
2021/03/20 08:10:31;;;;;;;22.17;17.33;;;6.10;99.90;;;;;;5108023;28;20496;-68
2021/03/20 08:13:02;;;;;;;25.50;17.80;;;6.20;99.90;;;;;;5107596;28;20183;-69
2021/03/20 08:15:38;;;;;;;24.30;16.70;;;6.30;99.90;;;;;;5104058;28;20159;-68
2021/03/20 08:18:21;;;;;;;22.07;16.50;;;6.30;99.90;;;;;;5107491;28;20167;-69
2021/03/20 08:21:20;;;;;;;26.47;16.53;;;6.40;99.90;;;;;;5107533;28;20260;-68
2021/03/20 08:24:22;;;;;;;22.67;19.00;;;6.50;99.90;;;;;;5105761;28;20427;-69
2021/03/20 08:27:16;;;;;;;24.07;17.93;;;6.80;99.90;;;;;;5104598;28;20672;-69
2021/03/20 08:30:21;;;;;;;20.40;16.33;;;6.80;99.90;;;;;;5107309;28;20229;-70
2021/03/20 08:33:15;;;;;;;24.20;16.23;;;6.80;99.90;;;;;;5106142;28;20171;-69
2021/03/20 08:36:16;;;;;;;21.07;16.90;;;6.90;99.90;;;;;;5104353;28;20176;-70
2021/03/20 08:39:15;;;;;;;29.40;16.40;;;7.00;99.90;;;;;;5107132;28;20191;-67
2021/03/20 08:41:43;;;;;;;20.30;16.10;;;7.10;99.90;;;;;;5107250;28;20242;-68
2021/03/20 08:44:24;;;;;;;19.77;15.60;;;7.20;99.90;;;;;;5106553;28;20286;-68
2021/03/20 08:47:03;;;;;;;25.63;14.67;;;7.10;99.90;;;;;;5103492;28;20188;-67
2021/03/20 08:49:56;;;;;;;17.37;14.87;;;7.20;99.90;;;;;;5106824;28;20163;-67
2021/03/20 08:52:30;;;;;;;23.23;16.30;;;7.20;99.90;;;;;;5106911;28;20171;-68
2021/03/20 08:55:08;;;;;;;19.63;15.20;;;7.30;99.90;;;;;;5106090;28;20519;-68
2021/03/20 08:57:50;;;;;;;19.60;15.10;;;7.40;99.90;;;;;;5106974;28;20171;-68
2021/03/20 09:00:31;;;;;;;25.10;14.80;;;7.50;99.90;;;;;;5107206;28;20163;-68
2021/03/20 09:03:03;;;;;;;19.27;15.20;;;7.40;99.90;;;;;;5106653;28;20174;-68
2021/03/20 09:05:37;;;;;;;16.83;14.90;;;7.50;99.90;;;;;;5103901;28;20497;-68
2021/03/20 09:08:11;;;;;;;26.97;19.70;;;7.50;99.90;;;;;;5106519;28;20163;-68
2021/03/20 09:10:42;;;;;;;20.47;15.80;;;7.60;99.90;;;;;;5106457;28;20171;-68
2021/03/20 09:13:25;;;;;;;19.97;15.47;;;7.60;99.90;;;;;;5106693;28;20234;-68
2021/03/20 09:16:01;;;;;;;33.03;15.63;;;7.70;99.90;;;;;;5104107;28;20167;-68
2021/03/20 09:18:27;;;;;;;19.43;15.20;;;7.80;99.90;;;;;;5106966;28;20159;-68
2021/03/20 09:20:57;;;;;;;18.83;15.33;;;7.90;99.90;;;;;;5106240;28;20516;-68
2021/03/20 09:23:38;;;;;;;19.93;14.43;;;7.80;99.90;;;;;;5105181;28;20275;-68
2021/03/20 09:26:07;;;;;;;24.47;14.60;;;7.30;99.90;;;;;;5103497;28;20174;-68
2021/03/20 09:28:51;;;;;;;18.63;15.00;;;7.30;99.90;;;;;;5106564;28;20182;-68
2021/03/20 09:31:32;;;;;;;19.13;15.88;;;7.60;99.90;;;;;;5105876;28;20404;-68
2021/03/20 09:34:01;;;;;;;18.57;14.40;;;7.70;99.90;;;;;;5106033;28;20174;-68
2021/03/20 09:36:47;;;;;;;20.57;14.87;;;7.80;99.90;;;;;;5103363;28;20195;-68
2021/03/20 09:39:33;;;;;;;15.20;13.57;;;8.30;99.90;;;;;;5104619;28;20224;-68
2021/03/20 09:41:58;;;;;;;18.30;15.03;;;8.10;99.90;;;;;;5105813;28;20167;-68
2021/03/20 09:44:26;;;;;;;19.87;15.47;;;8.10;99.90;;;;;;5106235;28;20248;-68
2021/03/20 09:46:54;;;;;;;16.60;14.57;;;8.10;99.90;;;;;;5103650;28;20163;-68
2021/03/20 09:49:23;;;;;;;20.67;15.17;;;8.40;99.90;;;;;;5106217;28;20182;-68
2021/03/20 09:51:48;;;;;;;25.13;13.90;;;8.50;99.90;;;;;;5105799;28;20191;-68
2021/03/20 09:54:41;;;;;;;15.70;12.73;;;8.20;99.90;;;;;;5106250;28;20202;-68
2021/03/20 09:57:07;;;;;;;16.77;13.53;;;7.80;99.90;;;;;;5096555;28;20254;-67
2021/03/20 09:59:33;;;;;;;17.67;13.53;;;7.90;99.90;;;;;;5105997;28;20200;-68
2021/03/20 10:02:02;;;;;;;16.10;13.47;;;7.50;99.90;;;;;;5105339;28;20156;-68
2021/03/20 10:04:34;;;;;;;16.53;12.83;;;7.30;99.90;;;;;;5105479;28;20660;-68
2021/03/20 10:07:19;;;;;;;19.07;14.30;;;7.20;99.90;;;;;;5102750;28;20167;-68
2021/03/20 10:09:56;;;;;;;21.60;14.27;;;7.50;99.90;;;;;;5105887;28;20166;-68
2021/03/20 10:12:28;;;;;;;15.47;13.30;;;7.80;99.90;;;;;;5105765;28;20534;-68
2021/03/20 10:15:04;;;;;;;14.30;12.80;;;8.00;99.90;;;;;;5105073;28;20159;-68
2021/03/20 10:17:32;;;;;;;12.53;11.23;;;8.20;99.90;;;;;;5105106;28;20208;-67
2021/03/20 10:20:14;;;;;;;12.80;11.03;;;8.50;99.90;;;;;;5105049;28;20191;-68
2021/03/20 10:23:01;;;;;;;10.93;9.77;;;8.70;99.90;;;;;;5105242;28;20250;-67
2021/03/20 10:25:28;;;;;;;15.43;9.47;;;8.90;99.90;;;;;;5102450;28;20718;-67
2021/03/20 10:28:00;;;;;;;11.87;10.03;;;9.10;99.90;;;;;;5105594;28;20155;-67
2021/03/20 10:30:31;;;;;;;11.20;9.93;;;8.60;99.90;;;;;;5105727;28;20151;-68
2021/03/20 10:33:01;;;;;;;11.07;9.90;;;8.90;99.90;;;;;;5105117;28;20178;-67
2021/03/20 10:35:30;;;;;;;9.33;8.43;;;9.20;99.90;;;;;;5102470;28;20365;-68
2021/03/20 10:37:55;;;;;;;12.23;9.20;;;9.60;99.90;;;;;;5106369;28;20166;-67
2021/03/20 10:40:27;;;;;;;9.90;8.67;;;9.50;99.90;;;;;;5109526;28;20171;-67
2021/03/20 10:43:01;;;;;;;10.83;9.00;;;9.50;99.90;;;;;;5109167;28;20242;-67
2021/03/20 10:45:34;;;;;;;10.53;8.93;;;10.00;99.90;;;;;;5107056;28;20202;-68
2021/03/20 10:48:25;;;;;;;10.50;9.20;;;9.70;99.90;;;;;;5109397;28;20164;-67
2021/03/20 10:51:02;;;;;;;9.57;8.60;;;9.30;99.90;;;;;;5108877;28;20168;-67
2021/03/20 10:53:54;;;;;;;12.73;9.20;;;9.70;99.90;;;;;;5109497;28;20189;-67
2021/03/20 10:56:27;;;;;;;10.43;8.97;;;10.00;99.90;;;;;;5104259;28;20684;-67
2021/03/20 10:58:53;;;;;;;10.77;9.70;;;10.40;99.90;;;;;;5109452;28;20562;-67
2021/03/20 11:01:30;;;;;;;11.90;8.70;;;10.50;99.90;;;;;;5107996;28;20186;-67
2021/03/20 11:03:56;;;;;;;10.63;9.13;;;10.70;99.90;;;;;;5108857;28;20190;-68
2021/03/20 11:06:24;;;;;;;9.80;8.80;;;10.70;99.90;;;;;;5106369;28;20167;-67
2021/03/20 11:09:04;;;;;;;10.52;8.98;;;10.90;99.90;;;;;;5108247;28;20404;-67
2021/03/20 11:11:32;;;;;;;10.17;9.17;;;11.20;99.90;;;;;;5108257;28;20159;-70
2021/03/20 11:14:11;;;;;;;8.75;7.13;;;11.30;99.90;;;;;;5108176;28;20171;-67
2021/03/20 11:16:45;;;;;;;8.10;7.40;;;11.50;99.90;;;;;;5106624;28;20250;-68
2021/03/20 11:19:10;;;;;;;10.05;8.65;;;11.50;99.90;;;;;;5108268;28;20458;-68
2021/03/20 11:21:48;;;;;;;8.98;8.10;;;11.80;99.90;;;;;;5108670;28;20579;-67
2021/03/20 11:24:22;;;;;;;9.52;8.48;;;11.60;99.90;;;;;;5108236;28;20254;-67
2021/03/20 11:26:49;;;;;;;8.20;7.40;;;11.60;99.90;;;;;;5106255;28;20166;-68
2021/03/20 11:29:21;;;;;;;8.02;7.32;;;11.70;99.90;;;;;;5107621;28;20159;-68
2021/03/20 11:31:51;;;;;;;8.15;6.90;;;11.80;99.90;;;;;;5108808;28;20167;-68
2021/03/20 11:34:26;;;;;;;8.87;8.00;;;12.00;99.90;;;;;;5108256;28;20262;-68
2021/03/20 11:36:54;;;;;;;8.77;7.97;;;12.30;99.90;;;;;;5105339;28;20671;-68
2021/03/20 11:39:20;;;;;;;9.30;8.23;;;12.20;99.90;;;;;;5108553;28;20167;-67
2021/03/20 11:41:46;;;;;;;8.77;7.88;;;11.70;99.90;;;;;;5108603;28;20220;-68
2021/03/20 11:44:21;;;;;;;9.90;8.83;;;11.40;99.90;;;;;;5108130;28;20183;-67
2021/03/20 11:46:57;;;;;;;8.63;7.80;;;11.10;99.90;;;;;;5106092;28;20197;-67
2021/03/20 11:49:46;;;;;;;8.87;7.97;;;11.20;99.90;;;;;;5108031;28;20155;-67
2021/03/20 11:52:19;;;;;;;9.93;7.27;;;11.10;99.90;;;;;;5108125;28;20258;-67
2021/03/20 11:54:45;;;;;;;8.87;7.97;;;10.90;99.90;;;;;;5108454;28;20163;-68
2021/03/20 11:57:11;;;;;;;11.37;7.93;;;11.00;99.90;;;;;;5105260;28;20296;-67
2021/03/20 11:59:43;;;;;;;8.50;7.70;;;11.00;99.90;;;;;;5107931;28;20198;-68
2021/03/20 12:02:24;;;;;;;8.97;8.00;;;11.10;99.90;;;;;;5106816;28;20235;-68
2021/03/20 12:05:08;;;;;;;9.43;7.33;;;11.10;99.90;;;;;;5106710;28;20201;-67
2021/03/20 12:07:34;;;;;;;8.07;7.27;;;11.50;99.90;;;;;;5107350;28;20217;-67
2021/03/20 12:10:20;;;;;;;8.37;7.50;;;11.60;99.90;;;;;;5107478;28;20159;-67
2021/03/20 12:12:57;;;;;;;8.80;7.73;;;11.70;99.90;;;;;;5107400;28;20178;-68
2021/03/20 12:15:32;;;;;;;10.47;7.10;;;11.40;99.90;;;;;;5104410;28;20403;-68
2021/03/20 12:18:09;;;;;;;8.80;7.73;;;11.20;99.90;;;;;;5107342;28;20163;-67
2021/03/20 12:20:41;;;;;;;13.13;7.50;;;11.30;99.90;;;;;;5107262;28;20171;-67
2021/03/20 12:23:27;;;;;;;12.17;7.43;;;11.10;99.90;;;;;;5107013;28;20189;-68
2021/03/20 12:25:55;;;;;;;8.37;7.17;;;10.90;99.90;;;;;;5104762;28;20167;-67
2021/03/20 12:28:46;;;;;;;10.33;7.50;;;11.20;99.90;;;;;;5107571;28;20167;-67
2021/03/20 12:31:17;;;;;;;10.50;8.00;;;11.70;99.90;;;;;;5107586;28;20175;-68
2021/03/20 12:33:49;;;;;;;11.05;7.50;;;11.90;99.90;;;;;;5107369;28;20190;-68
2021/03/20 12:36:33;;;;;;;10.50;8.25;;;11.90;99.90;;;;;;5103907;28;20174;-68
2021/03/20 12:38:59;;;;;;;9.10;8.20;;;11.50;99.90;;;;;;5107318;28;20231;-68
2021/03/20 12:41:31;;;;;;;10.30;9.30;;;11.80;99.90;;;;;;5107415;28;20172;-68
2021/03/20 12:44:07;;;;;;;11.02;9.00;;;11.80;99.90;;;;;;5106297;28;20784;-68
2021/03/20 12:46:33;;;;;;;10.18;9.15;;;12.10;99.90;;;;;;5104676;28;20246;-68
2021/03/20 12:48:59;;;;;;;12.23;9.27;;;11.80;99.90;;;;;;5107242;28;20175;-67
2021/03/20 12:51:25;;;;;;;16.58;9.68;;;12.20;99.90;;;;;;5106784;28;20543;-67
2021/03/20 12:53:51;;;;;;;10.85;9.82;;;12.60;99.90;;;;;;5106605;28;20198;-68
2021/03/20 12:56:17;;;;;;;14.23;10.07;;;12.80;99.90;;;;;;5104666;28;20219;-67
2021/03/20 12:58:43;;;;;;;13.73;9.77;;;12.30;99.90;;;;;;5107160;28;20255;-67
2021/03/20 13:01:08;;;;;;;11.02;10.02;;;11.90;99.90;;;;;;5105900;28;20221;-68
2021/03/20 13:03:36;;;;;;;13.20;11.07;;;11.70;99.90;;;;;;5106778;28;20185;-69
2021/03/20 13:06:02;;;;;;;10.25;9.20;;;11.90;99.90;;;;;;5103714;28;20202;-69
2021/03/20 13:08:28;;;;;;;10.55;9.45;;;12.10;99.90;;;;;;5107115;28;20171;-68
2021/03/20 13:10:54;;;;;;;13.55;9.07;;;12.20;99.90;;;;;;5106374;28;20163;-69
2021/03/20 13:13:20;;;;;;;11.95;9.45;;;12.00;99.90;;;;;;5106987;28;20163;-68
2021/03/20 13:15:46;;;;;;;10.27;9.27;;;12.60;99.90;;;;;;5103636;28;20169;-67
2021/03/20 13:18:12;;;;;;;12.88;9.85;;;12.90;99.90;;;;;;5106636;28;20185;-68